Time;durP1;ratioP1;P1;durP2;ratioP2;P2;SDS_P1;SDS_P2;PMS_P1;PMS_P2;Temp;Humidity;BMP_temperature;BMP_pressure;BME280_temperature;BME280_humidity;BME280_pressure;Samples;Min_cycle;Max_cycle;Signal;HPM_P1;HPM_P2
2021/07/02 00:01:58;;;;;;;0.60;0.60;;;;;;;16.87;100.00;100322.28;5072953;28;20512;-53
2021/07/02 00:04:25;;;;;;;0.40;0.20;;;;;;;16.90;100.00;100325.75;5060721;28;20478;-53
2021/07/02 00:06:51;;;;;;;0.40;0.20;;;;;;;16.87;100.00;100316.94;5072843;28;20453;-53
2021/07/02 00:09:18;;;;;;;2.27;0.93;;;;;;;16.88;100.00;100317.78;5072317;28;20429;-52
2021/07/02 00:11:45;;;;;;;0.40;0.20;;;;;;;16.73;100.00;100316.81;5072484;28;20983;-52
2021/07/02 00:14:11;;;;;;;0.40;0.20;;;;;;;16.91;100.00;100320.31;5072616;28;20449;-53
2021/07/02 00:16:39;;;;;;;0.40;0.20;;;;;;;16.84;100.00;100313.50;5062422;28;20455;-52
2021/07/02 00:19:06;;;;;;;0.40;0.20;;;;;;;16.73;100.00;100316.81;5069230;28;20454;-52
2021/07/02 00:21:33;;;;;;;0.40;0.30;;;;;;;16.71;100.00;100321.34;5064841;28;20524;-53
2021/07/02 00:24:00;;;;;;;0.40;0.20;;;;;;;16.82;100.00;100318.97;5069847;28;20507;-53
2021/07/02 00:26:26;;;;;;;0.40;0.20;;;;;;;16.74;100.00;100321.22;5072698;28;20428;-53
2021/07/02 00:28:53;;;;;;;0.40;0.20;;;;;;;16.70;100.00;100321.44;5072459;28;20420;-52
2021/07/02 00:31:20;;;;;;;0.40;0.20;;;;;;;16.83;100.00;100317.16;5072368;28;20496;-53
2021/07/02 00:33:46;;;;;;;0.40;0.20;;;;;;;16.76;100.00;100324.69;5067877;28;20446;-53
2021/07/02 00:36:13;;;;;;;0.40;0.20;;;;;;;16.72;100.00;100317.75;5072346;28;20461;-53
2021/07/02 00:38:40;;;;;;;0.40;0.30;;;;;;;16.70;100.00;100313.38;5071922;28;20481;-53
2021/07/02 00:41:06;;;;;;;0.40;0.20;;;;;;;16.84;100.00;100308.16;5072461;28;20492;-53
2021/07/02 00:43:33;;;;;;;3.43;1.03;;;;;;;16.74;100.00;100310.47;5070812;28;20813;-53
2021/07/02 00:46:00;;;;;;;1.43;1.43;;;;;;;16.77;100.00;100309.44;5072116;28;20492;-53
2021/07/02 00:48:26;;;;;;;0.40;0.30;;;;;;;16.69;100.00;100307.16;5071987;28;20970;-53
2021/07/02 00:50:53;;;;;;;0.40;0.20;;;;;;;16.57;100.00;100302.41;5072009;28;20490;-53
2021/07/02 00:53:22;;;;;;;0.40;0.20;;;;;;;16.55;100.00;100301.63;5071664;28;20494;-53
2021/07/02 00:55:49;;;;;;;0.77;0.50;;;;;;;16.48;100.00;100298.41;5072348;28;20450;-53
2021/07/02 00:58:18;;;;;;;0.40;0.20;;;;;;;16.61;100.00;100298.63;5071930;28;20940;-53
2021/07/02 01:00:44;;;;;;;0.40;0.20;;;;;;;16.70;100.00;100308.03;5072120;28;20470;-53
2021/07/02 01:03:11;;;;;;;0.40;0.20;;;;;;;16.59;100.00;100296.03;5068126;28;20478;-53
2021/07/02 01:05:37;;;;;;;0.40;0.20;;;;;;;16.69;100.00;100298.25;5064287;28;21007;-53
2021/07/02 01:08:05;;;;;;;0.40;0.30;;;;;;;16.66;100.00;100296.56;5071661;28;20452;-54
2021/07/02 01:10:32;;;;;;;0.40;0.20;;;;;;;16.80;100.00;100299.41;5071997;28;20528;-52
2021/07/02 01:12:59;;;;;;;0.40;0.20;;;;;;;16.56;100.00;100290.81;5071760;28;20464;-52
2021/07/02 01:15:26;;;;;;;0.50;0.50;;;;;;;16.54;100.00;100287.34;5071666;28;20454;-53
2021/07/02 01:17:54;;;;;;;2.20;1.70;;;;;;;16.61;100.00;100292.41;5058885;28;20452;-53
2021/07/02 01:20:21;;;;;;;0.50;0.40;;;;;;;16.56;100.00;100290.81;5071557;28;20466;-53
2021/07/02 01:22:47;;;;;;;0.40;0.20;;;;;;;16.56;100.00;100293.50;5061172;28;20459;-53
2021/07/02 01:25:14;;;;;;;0.40;0.20;;;;;;;16.66;100.00;100296.56;5071613;28;21013;-53
2021/07/02 01:27:41;;;;;;;0.50;0.50;;;;;;;16.66;100.00;100284.97;5071926;28;20450;-53
2021/07/02 01:30:09;;;;;;;0.40;0.20;;;;;;;16.54;100.00;100284.66;5071670;28;20515;-53
2021/07/02 01:32:36;;;;;;;1.03;1.03;;;;;;;16.43;100.00;100280.81;5075511;28;20493;-53
2021/07/02 01:35:04;;;;;;;0.40;0.20;;;;;;;16.64;100.00;100274.31;5070634;28;20477;-53
2021/07/02 01:37:31;;;;;;;0.40;0.20;;;;;;;16.68;100.00;100275.91;5075858;28;20485;-52
2021/07/02 01:39:58;;;;;;;0.40;0.20;;;;;;;16.76;100.00;100281.72;5075346;28;20457;-53
2021/07/02 01:42:24;;;;;;;0.40;0.30;;;;;;;16.60;100.00;100280.78;5075584;28;20446;-53
2021/07/02 01:44:51;;;;;;;0.40;0.30;;;;;;;16.51;100.00;100283.97;5075317;28;20425;-53
2021/07/02 01:47:17;;;;;;;0.40;0.20;;;;;;;16.56;100.00;100282.75;5075424;28;20500;-53
2021/07/02 01:49:44;;;;;;;0.40;0.20;;;;;;;16.51;100.00;100279.47;5075432;28;20998;-53
2021/07/02 01:52:11;;;;;;;0.40;0.40;;;;;;;16.50;100.00;100277.72;5074191;28;20489;-53
2021/07/02 01:54:38;;;;;;;0.40;0.20;;;;;;;16.44;100.00;100278.03;5075141;28;20424;-53
2021/07/02 01:57:09;;;;;;;0.40;0.20;;;;;;;16.33;100.00;100279.56;5075336;28;20450;-53
2021/07/02 01:59:36;;;;;;;0.57;0.57;;;;;;;16.31;100.00;100282.34;5075015;28;20495;-53
2021/07/02 02:02:03;;;;;;;0.40;0.20;;;;;;;16.41;100.00;100282.69;5075458;28;20820;-52
2021/07/02 02:04:31;;;;;;;0.40;0.20;;;;;;;16.49;100.00;100283.19;5062861;28;20454;-54
2021/07/02 02:06:57;;;;;;;0.40;0.20;;;;;;;16.39;100.00;100277.41;5075214;28;20458;-53
2021/07/02 02:09:26;;;;;;;0.50;0.40;;;;;;;16.37;100.00;100276.63;5074796;28;20457;-53
2021/07/02 02:11:52;;;;;;;0.40;0.27;;;;;;;16.37;100.00;100278.47;5074865;28;20892;-52
2021/07/02 02:14:19;;;;;;;0.40;0.20;;;;;;;16.38;100.00;100281.06;5074698;28;20966;-53
2021/07/02 02:16:46;;;;;;;0.40;0.20;;;;;;;16.28;100.00;100277.13;5063345;28;20458;-53
2021/07/02 02:19:12;;;;;;;0.40;0.20;;;;;;;16.30;100.00;100280.56;5073037;28;20559;-53
2021/07/02 02:21:39;;;;;;;0.40;0.20;;;;;;;16.44;100.00;100277.16;5066248;28;20512;-53
2021/07/02 02:24:05;;;;;;;0.40;0.20;;;;;;;16.45;100.00;100278.94;5072840;28;20765;-53
2021/07/02 02:26:32;;;;;;;0.50;0.50;;;;;;;16.44;100.00;100290.59;5074726;28;20450;-53
2021/07/02 02:28:59;;;;;;;0.40;0.20;;;;;;;16.52;100.00;100293.75;5074399;28;20452;-53
2021/07/02 02:31:26;;;;;;;0.80;0.50;;;;;;;16.39;100.00;100281.91;5074661;28;20473;-53
2021/07/02 02:33:52;;;;;;;1.20;0.57;;;;;;;16.33;100.00;100285.81;5070288;28;20485;-53
2021/07/02 02:36:19;;;;;;;0.40;0.20;;;;;;;16.19;100.00;100283.84;5074598;28;20531;-53
2021/07/02 02:38:46;;;;;;;0.40;0.20;;;;;;;15.96;100.00;100281.47;5074307;28;20866;-53
2021/07/02 02:41:13;;;;;;;0.40;0.30;;;;;;;15.99;100.00;100281.31;5074345;28;20466;-53
2021/07/02 02:43:39;;;;;;;0.40;0.20;;;;;;;15.94;100.00;100288.72;5073988;28;20850;-52
2021/07/02 02:46:06;;;;;;;0.40;0.20;;;;;;;15.87;100.00;100290.84;5074253;28;20877;-53
2021/07/02 02:48:33;;;;;;;0.40;0.20;;;;;;;15.77;100.00;100278.84;5074163;28;20500;-53
2021/07/02 02:51:00;;;;;;;0.40;0.20;;;;;;;15.69;100.00;100291.75;5074381;28;20478;-53
2021/07/02 02:53:27;;;;;;;0.67;0.67;;;;;;;15.61;100.00;100285.91;5073771;28;20500;-53
2021/07/02 02:55:53;;;;;;;0.97;0.97;;;;;;;15.63;100.00;100281.34;5074255;28;20462;-53
2021/07/02 02:58:20;;;;;;;0.40;0.30;;;;;;;15.50;100.00;100281.06;5073960;28;20454;-53
2021/07/02 03:00:47;;;;;;;0.63;0.63;;;;;;;15.52;100.00;100275.63;5074218;28;20519;-53
2021/07/02 03:03:13;;;;;;;0.40;0.20;;;;;;;15.45;100.00;100276.84;5070170;28;20517;-53
2021/07/02 03:05:43;;;;;;;0.43;0.43;;;;;;;15.51;100.00;100282.78;5066812;28;20450;-53
2021/07/02 03:08:09;;;;;;;0.57;0.50;;;;;;;15.29;100.00;100288.31;5073747;28;20432;-53
2021/07/02 03:10:36;;;;;;;0.40;0.30;;;;;;;15.24;100.00;100281.44;5074255;28;20465;-53
2021/07/02 03:13:03;;;;;;;0.40;0.30;;;;;;;15.26;100.00;100283.09;5073661;28;21049;-53
2021/07/02 03:15:30;;;;;;;0.43;0.40;;;;;;;15.33;100.00;100291.69;5073157;28;20503;-52
2021/07/02 03:17:56;;;;;;;0.40;0.20;;;;;;;15.33;100.00;100283.66;5061612;28;20450;-52
2021/07/02 03:20:23;;;;;;;2.00;2.00;;;;;;;15.20;100.00;100282.50;5073565;28;20481;-52
2021/07/02 03:22:50;;;;;;;0.40;0.20;;;;;;;15.14;100.00;100286.38;5063631;28;20454;-53
2021/07/02 03:25:16;;;;;;;0.40;0.20;;;;;;;15.17;100.00;100286.22;5073276;28;20517;-53
2021/07/02 03:27:43;;;;;;;0.40;0.20;;;;;;;15.14;100.00;100288.19;5073491;28;20446;-52
2021/07/02 03:30:12;;;;;;;0.40;0.30;;;;;;;15.03;100.00;100289.53;5073533;28;20856;-53
2021/07/02 03:32:39;;;;;;;0.63;0.63;;;;;;;15.04;100.00;100288.59;5073512;28;20494;-54
2021/07/02 03:35:08;;;;;;;0.40;0.20;;;;;;;15.02;100.00;100290.47;5069430;28;20449;-52
2021/07/02 03:37:35;;;;;;;0.40;0.20;;;;;;;15.11;100.00;100283.84;5073361;28;20495;-53
2021/07/02 03:40:05;;;;;;;0.40;0.20;;;;;;;15.06;100.00;100293.88;5072842;28;20515;-52
2021/07/02 03:42:32;;;;;;;0.40;0.27;;;;;;;15.05;100.00;100298.38;5074023;28;20459;-52
2021/07/02 03:44:59;;;;;;;0.40;0.20;;;;;;;14.97;100.00;100294.34;5073157;28;20465;-52
2021/07/02 03:47:25;;;;;;;0.40;0.20;;;;;;;14.80;100.00;100303.13;5073081;28;20867;-52
2021/07/02 03:49:53;;;;;;;0.40;0.20;;;;;;;14.88;100.00;100300.97;5073370;28;20457;-52
2021/07/02 03:52:19;;;;;;;0.40;0.20;;;;;;;14.85;100.00;100297.56;5072837;28;20927;-53
2021/07/02 03:54:46;;;;;;;0.40;0.20;;;;;;;14.87;100.00;100301.03;5071780;28;20445;-52
2021/07/02 03:57:13;;;;;;;4.63;2.00;;;;;;;14.75;100.00;100303.34;5073184;28;20446;-53
2021/07/02 03:59:45;;;;;;;0.40;0.20;;;;;;;14.63;100.00;100316.41;5072826;28;20453;-53
2021/07/02 04:02:12;;;;;;;0.40;0.20;;;;;;;14.67;100.00;100318.00;5073189;28;20488;-53
2021/07/02 04:04:40;;;;;;;0.40;0.20;;;;;;;14.61;100.00;100315.59;5062168;28;20454;-53
2021/07/02 04:07:08;;;;;;;1.70;1.70;;;;;;;14.59;100.00;100315.66;5072834;28;20449;-53
2021/07/02 04:09:35;;;;;;;0.50;0.30;;;;;;;14.62;100.00;100315.53;5072596;28;20503;-53
2021/07/02 04:12:04;;;;;;;0.40;0.20;;;;;;;14.72;100.00;100314.19;5072606;28;20531;-53
2021/07/02 04:14:31;;;;;;;0.40;0.20;;;;;;;14.86;100.00;100318.91;5071242;28;20482;-54
2021/07/02 04:16:58;;;;;;;0.40;0.20;;;;;;;14.88;100.00;100321.50;5059682;28;20454;-53
2021/07/02 04:19:25;;;;;;;0.40;0.20;;;;;;;14.86;100.00;100334.97;5059099;28;20824;-53
2021/07/02 04:21:52;;;;;;;0.40;0.20;;;;;;;14.96;100.00;100325.59;5062517;28;20478;-53
2021/07/02 04:24:19;;;;;;;0.40;0.20;;;;;;;14.91;100.00;100335.63;5059293;28;20533;-53
2021/07/02 04:27:06;;;;;;;0.40;0.20;;;;;;;15.05;100.00;100333.16;5072609;28;20537;-53
2021/07/02 04:29:33;;;;;;;0.40;0.20;;;;;;;15.18;100.00;100328.13;5072284;28;20454;-52
2021/07/02 04:31:59;;;;;;;0.40;0.30;;;;;;;15.26;100.00;100327.78;5072101;28;20526;-54
2021/07/02 04:34:26;;;;;;;0.40;0.20;;;;;;;15.79;100.00;100332.38;5068742;28;20489;-53
2021/07/02 04:36:52;;;;;;;0.40;0.20;;;;;;;16.41;100.00;100334.56;5072316;28;20511;-54
2021/07/02 04:39:21;;;;;;;0.40;0.20;;;;;;;17.07;100.00;100339.13;5072434;28;20978;-53
2021/07/02 04:41:48;;;;;;;0.43;0.37;;;;;;;17.59;99.37;100337.09;5072038;28;20476;-54
2021/07/02 04:44:14;;;;;;;0.40;0.20;;;;;;;18.25;97.30;100338.69;5072009;28;20438;-53
2021/07/02 04:46:41;;;;;;;0.40;0.20;;;;;;;18.52;94.38;100336.16;5072373;28;20465;-53
2021/07/02 04:49:08;;;;;;;0.40;0.20;;;;;;;18.58;94.72;100327.72;5072016;28;20450;-53
2021/07/02 04:51:35;;;;;;;0.40;0.20;;;;;;;18.95;93.41;100339.81;5072192;28;20497;-53
2021/07/02 04:54:02;;;;;;;0.40;0.20;;;;;;;19.06;92.34;100340.00;5072088;28;20572;-53
2021/07/02 04:56:28;;;;;;;0.40;0.20;;;;;;;19.28;90.96;100336.81;5072034;28;20872;-52
2021/07/02 04:58:55;;;;;;;0.40;0.20;;;;;;;19.29;89.77;100335.84;5072060;28;20461;-53
2021/07/02 05:01:23;;;;;;;0.40;0.20;;;;;;;19.78;87.18;100335.41;5071681;28;21031;-54
2021/07/02 05:03:50;;;;;;;0.40;0.20;;;;;;;20.17;85.58;100329.16;5063141;28;20418;-53
2021/07/02 05:06:17;;;;;;;0.40;0.20;;;;;;;20.06;86.54;100347.91;5069962;28;20804;-53
2021/07/02 05:08:44;;;;;;;0.40;0.20;;;;;;;19.45;86.16;100341.09;5071853;28;20482;-53
2021/07/02 05:11:12;;;;;;;0.40;0.20;;;;;;;19.31;86.70;100341.13;5071831;28;20473;-53
2021/07/02 05:13:39;;;;;;;0.40;0.20;;;;;;;19.23;87.25;100344.31;5070575;28;20989;-52
2021/07/02 05:16:07;;;;;;;0.40;0.20;;;;;;;19.26;87.55;100345.94;5065861;28;20417;-53
2021/07/02 05:18:34;;;;;;;0.40;0.20;;;;;;;19.47;87.35;100341.91;5065067;28;20435;-53
2021/07/02 05:21:00;;;;;;;0.40;0.20;;;;;;;19.19;88.38;100345.50;5068747;28;20459;-53
2021/07/02 05:23:27;;;;;;;0.60;0.60;;;;;;;19.62;87.20;100349.03;5065575;28;20935;-54
2021/07/02 05:25:53;;;;;;;0.40;0.20;;;;;;;19.78;86.33;100357.84;5071915;28;20839;-54
2021/07/02 05:28:20;;;;;;;0.40;0.20;;;;;;;20.09;83.50;100353.97;5072567;28;20453;-54
2021/07/02 05:30:47;;;;;;;0.50;0.40;;;;;;;19.45;87.01;100359.97;5052106;28;21021;-53
2021/07/02 05:33:13;;;;;;;0.60;0.60;;;;;;;19.61;87.12;100360.78;5061454;28;20489;-54
2021/07/02 05:35:40;;;;;;;0.40;0.20;;;;;;;20.39;82.87;100363.66;5071659;28;20488;-53
2021/07/02 05:38:07;;;;;;;0.40;0.20;;;;;;;20.23;82.17;100357.56;5071622;28;20499;-53
2021/07/02 05:40:33;;;;;;;0.57;0.53;;;;;;;20.12;83.62;100358.28;5071330;28;21014;-53
2021/07/02 05:43:00;;;;;;;0.40;0.20;;;;;;;20.97;80.26;100356.97;5071735;28;20503;-54
2021/07/02 05:45:27;;;;;;;0.40;0.20;;;;;;;20.68;81.33;100349.03;5071600;28;20465;-53
2021/07/02 05:47:59;;;;;;;0.40;0.20;;;;;;;21.17;80.27;100348.28;5071474;28;20537;-54
2021/07/02 05:50:27;;;;;;;1.50;0.93;;;;;;;20.74;81.48;100358.56;5071527;28;20506;-53
2021/07/02 05:52:57;;;;;;;0.40;0.20;;;;;;;20.88;80.88;100363.00;5071305;28;20450;-53
2021/07/02 05:55:25;;;;;;;0.40;0.20;;;;;;;20.90;81.34;100359.22;5071335;28;20435;-54
2021/07/02 05:57:52;;;;;;;0.40;0.20;;;;;;;20.81;80.17;100351.75;5071528;28;20420;-53
2021/07/02 06:00:20;;;;;;;0.60;0.60;;;;;;;20.62;80.12;100354.88;5071578;28;20465;-53
2021/07/02 06:02:47;;;;;;;0.40;0.20;;;;;;;21.31;79.35;100355.44;5071131;28;20519;-56
2021/07/02 06:05:14;;;;;;;0.40;0.20;;;;;;;21.09;78.25;100361.47;5061933;28;20416;-53
2021/07/02 06:07:41;;;;;;;0.40;0.20;;;;;;;20.89;79.77;100365.59;5071237;28;20481;-53
2021/07/02 06:10:09;;;;;;;0.83;0.83;;;;;;;21.08;78.62;100367.88;5071149;28;20909;-54
2021/07/02 06:12:36;;;;;;;0.40;0.20;;;;;;;21.08;78.54;100364.28;5071340;28;20507;-56
2021/07/02 06:15:03;;;;;;;0.40;0.20;;;;;;;22.12;76.07;100369.31;5072084;28;20830;-53
2021/07/02 06:17:29;;;;;;;0.50;0.40;;;;;;;21.57;75.40;100365.25;5071919;28;20508;-54
2021/07/02 06:19:56;;;;;;;0.40;0.30;;;;;;;21.44;76.77;100369.81;5074754;28;20454;-53
2021/07/02 06:22:23;;;;;;;3.17;2.87;;;;;;;21.63;75.94;100355.81;5064193;28;20524;-54
2021/07/02 06:24:49;;;;;;;0.40;0.20;;;;;;;21.75;74.93;100359.44;5074896;28;20442;-54
2021/07/02 06:27:16;;;;;;;0.40;0.20;;;;;;;21.20;74.17;100361.59;5074812;28;20432;-54
2021/07/02 06:29:43;;;;;;;0.50;0.50;;;;;;;21.56;73.07;100357.25;5073297;28;20421;-54
2021/07/02 06:32:09;;;;;;;0.40;0.20;;;;;;;21.05;73.60;100364.53;5074495;28;20515;-55
2021/07/02 06:34:36;;;;;;;0.40;0.30;;;;;;;21.63;72.77;100360.34;5070164;28;20460;-54
2021/07/02 06:37:03;;;;;;;1.07;1.07;;;;;;;22.00;72.89;100363.91;5074459;28;20428;-54
2021/07/02 06:39:30;;;;;;;0.40;0.20;;;;;;;22.14;72.33;100363.75;5074611;28;20420;-55
2021/07/02 06:41:56;;;;;;;0.40;0.30;;;;;;;22.22;73.06;100371.31;5072999;28;20971;-54
2021/07/02 06:44:23;;;;;;;0.50;0.50;;;;;;;21.35;74.92;100367.75;5074118;28;20875;-55
2021/07/02 06:46:49;;;;;;;0.50;0.20;;;;;;;21.09;77.03;100363.31;5074416;28;20421;-54
2021/07/02 06:49:17;;;;;;;0.40;0.30;;;;;;;21.85;72.12;100366.78;5075063;28;20450;-54
2021/07/02 06:51:43;;;;;;;0.40;0.30;;;;;;;21.92;71.80;100366.31;5075068;28;20473;-54
2021/07/02 06:54:10;;;;;;;0.40;0.27;;;;;;;21.42;73.42;100371.78;5074651;28;20581;-54
2021/07/02 06:56:59;;;;;;;0.53;0.53;;;;;;;22.12;72.16;100372.00;5074661;28;20507;-54
2021/07/02 06:59:25;;;;;;;0.40;0.20;;;;;;;22.23;70.02;100378.47;5074077;28;21022;-54
2021/07/02 07:01:53;;;;;;;1.57;0.87;;;;;;;22.61;65.77;100367.38;5074295;28;20440;-54
2021/07/02 07:04:21;;;;;;;0.40;0.20;;;;;;;22.24;66.85;100370.22;5063791;28;20507;-54
2021/07/02 07:06:48;;;;;;;0.60;0.60;;;;;;;21.84;66.76;100359.63;5074533;28;20967;-54
2021/07/02 07:09:15;;;;;;;0.40;0.20;;;;;;;21.53;67.93;100368.28;5072812;28;20437;-54
2021/07/02 07:11:41;;;;;;;0.40;0.20;;;;;;;21.58;67.74;100372.38;5074686;28;20509;-54
2021/07/02 07:14:08;;;;;;;0.50;0.30;;;;;;;22.44;67.34;100376.81;5073963;28;20828;-54
2021/07/02 07:16:35;;;;;;;2.43;1.50;;;;;;;22.76;65.52;100377.94;5064008;28;20482;-54
2021/07/02 07:19:02;;;;;;;0.40;0.23;;;;;;;22.39;65.13;100377.19;5070252;28;20489;-54
2021/07/02 07:21:29;;;;;;;0.40;0.30;;;;;;;22.17;65.00;100385.19;5065422;28;20461;-54
2021/07/02 07:23:57;;;;;;;0.40;0.30;;;;;;;22.22;66.15;100387.56;5070980;28;20413;-54
2021/07/02 07:26:24;;;;;;;0.40;0.30;;;;;;;22.43;65.69;100391.34;5073184;28;20489;-54
2021/07/02 07:28:51;;;;;;;0.40;0.30;;;;;;;22.42;65.57;100381.50;5073580;28;20849;-54
2021/07/02 07:31:18;;;;;;;0.50;0.30;;;;;;;22.54;66.56;100388.69;5072609;28;20486;-54
2021/07/02 07:33:47;;;;;;;0.40;0.20;;;;;;;22.15;65.16;100390.72;5068358;28;20859;-54
2021/07/02 07:36:19;;;;;;;0.70;0.70;;;;;;;21.85;68.06;100393.84;5072572;28;20425;-54
2021/07/02 07:38:46;;;;;;;0.43;0.30;;;;;;;21.82;68.65;100394.06;5073972;28;20417;-54
2021/07/02 07:41:13;;;;;;;0.40;0.20;;;;;;;21.49;69.46;100402.78;5073172;28;20478;-54
2021/07/02 07:43:39;;;;;;;0.40;0.30;;;;;;;21.64;70.68;100397.25;5071853;28;20820;-54
2021/07/02 07:46:07;;;;;;;0.40;0.20;;;;;;;21.50;71.36;100401.81;5073301;28;20432;-54
2021/07/02 07:48:34;;;;;;;0.40;0.30;;;;;;;22.40;69.56;100400.56;5071854;28;20429;-54
2021/07/02 07:51:15;;;;;;;0.40;0.20;;;;;;;22.25;67.61;100399.03;5074229;28;20486;-55
2021/07/02 07:53:42;;;;;;;0.40;0.20;;;;;;;22.44;65.74;100390.38;5073037;28;20831;-54
2021/07/02 07:56:09;;;;;;;0.50;0.50;;;;;;;22.51;67.18;100391.63;5071812;28;20553;-54
2021/07/02 07:58:35;;;;;;;4.23;1.73;;;;;;;23.09;66.50;100400.69;5071742;28;20487;-54
2021/07/02 08:01:03;;;;;;;0.40;0.20;;;;;;;22.56;64.49;100393.97;5075681;28;20474;-54
2021/07/02 08:03:29;;;;;;;0.50;0.50;;;;;;;22.56;66.17;100386.72;5067432;28;20455;-54
2021/07/02 08:05:56;;;;;;;0.40;0.20;;;;;;;22.86;66.08;100399.78;5067403;28;20476;-55
2021/07/02 08:08:25;;;;;;;9.00;0.80;;;;;;;23.30;62.44;100393.56;5073849;28;20420;-54
2021/07/02 08:10:53;;;;;;;0.87;0.87;;;;;;;23.74;59.51;100385.56;5071866;28;20465;-55
2021/07/02 08:13:20;;;;;;;1.60;0.77;;;;;;;23.21;62.58;100391.59;5071796;28;20445;-54
2021/07/02 08:15:48;;;;;;;0.40;0.20;;;;;;;23.61;60.63;100391.13;5068420;28;20433;-55
2021/07/02 08:18:15;;;;;;;0.43;0.30;;;;;;;23.60;60.34;100389.41;5062053;28;20424;-58
2021/07/02 08:20:41;;;;;;;2.10;1.30;;;;;;;22.61;63.17;100389.06;5072023;28;20449;-55
2021/07/02 08:23:09;;;;;;;0.40;0.20;;;;;;;23.18;62.34;100389.13;5061832;28;20425;-55
2021/07/02 08:25:37;;;;;;;2.13;2.03;;;;;;;22.75;65.05;100400.59;5074112;28;20448;-55
2021/07/02 08:30:51;;;;;;;0.60;0.60;;;;;;;23.68;58.40;100402.34;5072716;28;20460;-55
2021/07/02 08:33:19;;;;;;;0.40;0.20;;;;;;;24.06;61.86;100407.34;5066966;28;20923;-55
2021/07/02 08:35:46;;;;;;;0.40;0.20;;;;;;;23.75;63.22;100409.88;5072429;28;20529;-55
2021/07/02 08:38:14;;;;;;;0.40;0.20;;;;;;;22.99;62.49;100411.38;5071255;28;20425;-55
2021/07/02 08:40:41;;;;;;;0.40;0.30;;;;;;;23.45;62.63;100413.19;5070321;28;20900;-55
2021/07/02 08:43:09;;;;;;;0.50;0.20;;;;;;;23.16;63.59;100418.19;5071209;28;20451;-55
2021/07/02 08:45:37;;;;;;;0.40;0.30;;;;;;;23.19;62.35;100414.41;5071195;28;20520;-55
2021/07/02 08:48:06;;;;;;;0.40;0.30;;;;;;;23.42;60.27;100415.25;5072472;28;20421;-55
2021/07/02 08:50:36;;;;;;;0.40;0.20;;;;;;;22.91;63.69;100418.41;5073379;28;20849;-55
2021/07/02 08:53:05;;;;;;;0.40;0.30;;;;;;;22.56;64.76;100411.09;5071983;28;20462;-55
2021/07/02 08:55:33;;;;;;;0.40;0.20;;;;;;;23.14;63.96;100414.75;5072205;28;20479;-55
2021/07/02 08:58:00;;;;;;;6.53;2.77;;;;;;;23.37;60.97;100420.19;5071594;28;20432;-55
2021/07/02 09:00:27;;;;;;;0.40;0.30;;;;;;;23.11;60.13;100420.41;5072706;28;20470;-55
2021/07/02 09:02:55;;;;;;;0.50;0.47;;;;;;;23.23;61.36;100414.03;5070436;28;20598;-55
2021/07/02 09:05:26;;;;;;;0.83;0.83;;;;;;;23.24;62.82;100418.47;5062837;28;20435;-55
2021/07/02 09:07:53;;;;;;;0.40;0.30;;;;;;;23.75;64.20;100420.72;5071794;28;20496;-55
2021/07/02 09:10:30;;;;;;;0.40;0.20;;;;;;;22.89;65.49;100414.94;5070647;28;20474;-55
2021/07/02 09:12:57;;;;;;;0.40;0.30;;;;;;;23.48;64.34;100414.78;5052629;28;20498;-55
2021/07/02 09:15:24;;;;;;;0.40;0.20;;;;;;;22.39;65.61;100417.81;5061155;28;20461;-55
2021/07/02 09:17:51;;;;;;;0.50;0.43;;;;;;;22.63;64.53;100409.66;5052660;28;20801;-54
2021/07/02 09:20:21;;;;;;;1.33;1.33;;;;;;;22.50;65.54;100414.28;5050976;28;20896;-54
2021/07/02 09:22:51;;;;;;;0.40;0.20;;;;;;;22.74;65.44;100401.53;5061772;28;20510;-55
2021/07/02 09:25:23;;;;;;;0.40;0.20;;;;;;;23.16;65.75;100401.91;5071787;28;20474;-55
2021/07/02 09:27:54;;;;;;;0.60;0.60;;;;;;;23.40;65.27;100414.53;5071898;28;20428;-55
2021/07/02 09:30:24;;;;;;;0.40;0.30;;;;;;;23.94;65.13;100412.78;5072449;28;20478;-55
2021/07/02 09:33:02;;;;;;;0.63;0.63;;;;;;;24.19;62.51;100418.91;5071347;28;20424;-55
2021/07/02 09:35:36;;;;;;;0.40;0.20;;;;;;;23.87;61.29;100416.16;5070061;28;20559;-55
2021/07/02 09:38:04;;;;;;;0.47;0.30;;;;;;;23.38;64.36;100411.94;5071370;28;20435;-55
2021/07/02 09:40:36;;;;;;;1.33;1.33;;;;;;;23.22;63.76;100420.44;5070896;28;20547;-55
2021/07/02 09:43:11;;;;;;;1.80;1.70;;;;;;;23.38;62.66;100420.06;5074416;28;20446;-56
2021/07/02 09:45:49;;;;;;;0.50;0.30;;;;;;;23.24;61.60;100420.31;5073220;28;20557;-55
2021/07/02 09:48:18;;;;;;;3.00;2.83;;;;;;;23.57;63.37;100416.72;5072438;28;20952;-55
2021/07/02 09:50:55;;;;;;;0.50;0.30;;;;;;;23.53;63.07;100421.56;5071641;28;20472;-54
2021/07/02 09:53:25;;;;;;;0.50;0.30;;;;;;;24.02;61.38;100433.03;5074600;28;20459;-54
2021/07/02 09:55:53;;;;;;;0.50;0.30;;;;;;;24.04;60.13;100422.91;5075800;28;21033;-54
2021/07/02 09:58:22;;;;;;;0.50;0.30;;;;;;;24.30;59.68;100420.78;5076034;28;20457;-54
2021/07/02 10:00:52;;;;;;;0.40;0.20;;;;;;;24.49;58.96;100426.38;5074296;28;20556;-54
2021/07/02 10:03:27;;;;;;;0.50;0.37;;;;;;;23.89;58.99;100423.19;5070467;28;20956;-54
2021/07/02 10:05:58;;;;;;;0.70;0.70;;;;;;;23.99;59.51;100431.44;5068249;28;20806;-54
2021/07/02 10:08:30;;;;;;;0.40;0.30;;;;;;;24.18;59.61;100428.91;5075452;28;20423;-54
2021/07/02 10:10:58;;;;;;;1.03;1.03;;;;;;;23.80;61.75;100434.78;5074340;28;20477;-54
2021/07/02 10:13:32;;;;;;;0.50;0.30;;;;;;;24.10;60.40;100430.53;5074506;28;20511;-55
2021/07/02 10:16:04;;;;;;;0.50;0.30;;;;;;;23.68;60.74;100422.19;5070785;28;20486;-54
2021/07/02 10:18:36;;;;;;;2.83;1.13;;;;;;;23.83;61.33;100430.94;5066578;28;21125;-54
2021/07/02 10:21:05;;;;;;;0.53;0.53;;;;;;;23.88;60.12;100424.16;5070469;28;20514;-54
2021/07/02 10:23:34;;;;;;;12.90;1.97;;;;;;;24.04;60.22;100420.19;5067524;28;20462;-55
2021/07/02 10:26:05;;;;;;;0.50;0.30;;;;;;;23.96;61.15;100425.38;5073549;28;20420;-54
2021/07/02 10:28:35;;;;;;;0.50;0.30;;;;;;;24.38;60.67;100423.69;5073691;28;20458;-54
2021/07/02 10:31:03;;;;;;;0.57;0.57;;;;;;;24.66;60.31;100422.22;5073649;28;20510;-54
2021/07/02 10:33:30;;;;;;;0.60;0.60;;;;;;;24.45;61.16;100419.47;5070283;28;20469;-54
2021/07/02 10:36:03;;;;;;;0.50;0.40;;;;;;;24.78;60.64;100422.03;5075094;28;20468;-54
2021/07/02 10:38:48;;;;;;;0.50;0.30;;;;;;;24.88;57.46;100404.94;5074782;28;20463;-54
2021/07/02 10:41:18;;;;;;;0.47;0.30;;;;;;;24.99;57.10;100415.75;5073684;28;20473;-54
2021/07/02 10:44:08;;;;;;;0.50;0.30;;;;;;;25.48;57.13;100417.75;5074881;28;20421;-53
2021/07/02 10:46:39;;;;;;;0.70;0.30;;;;;;;25.46;56.71;100419.75;5074378;28;20824;-54
2021/07/02 10:49:11;;;;;;;0.40;0.30;;;;;;;24.89;55.68;100418.41;5074600;28;20879;-54
2021/07/02 10:51:39;;;;;;;0.50;0.30;;;;;;;24.78;56.79;100419.31;5073373;28;20448;-54
2021/07/02 10:54:09;;;;;;;0.50;0.20;;;;;;;24.66;58.63;100423.06;5073225;28;20465;-54
2021/07/02 10:56:38;;;;;;;0.40;0.23;;;;;;;25.21;57.76;100418.34;5074167;28;20915;-54
2021/07/02 10:59:05;;;;;;;1.23;1.23;;;;;;;24.98;57.41;100428.50;5075072;28;20449;-54
2021/07/02 11:01:32;;;;;;;0.43;0.30;;;;;;;25.23;56.15;100427.25;5073842;28;20515;-55
2021/07/02 11:04:31;;;;;;;0.50;0.50;;;;;;;24.60;57.30;100425.47;5064272;28;20446;-53
2021/07/02 11:06:58;;;;;;;0.50;0.50;;;;;;;24.33;58.54;100431.38;5056679;28;20447;-56
2021/07/02 11:09:54;;;;;;;0.50;0.30;;;;;;;24.32;59.72;100424.22;5071707;28;20507;-54
2021/07/02 11:12:27;;;;;;;0.50;0.23;;;;;;;24.18;58.59;100431.63;5074584;28;20503;-54
2021/07/02 11:15:08;;;;;;;0.47;0.20;;;;;;;23.97;58.17;100424.38;5074479;28;20580;-54
2021/07/02 11:17:41;;;;;;;0.40;0.20;;;;;;;24.47;58.33;100426.50;5059996;28;20442;-54
2021/07/02 11:20:09;;;;;;;0.43;0.30;;;;;;;24.18;59.01;100422.63;5073138;28;20544;-54
2021/07/02 11:22:44;;;;;;;0.43;0.20;;;;;;;24.46;59.74;100422.06;5062268;28;20452;-53
2021/07/02 11:25:22;;;;;;;0.47;0.30;;;;;;;24.77;57.86;100411.28;5074347;28;21306;-53
2021/07/02 11:27:51;;;;;;;1.37;1.27;;;;;;;24.59;59.80;100408.28;5074063;28;20442;-53
2021/07/02 11:32:53;;;;;;;0.47;0.20;;;;;;;24.47;56.80;100412.91;5072948;28;20816;-53